Latest Weather Observations for Esperance

IDW60801

Issued at 1:43 pm WST Tuesday 10 December 2019 (issued every 10 minutes, with the page automatically refreshed every 10 minutes)

About weather observations | Map of weather stations | Latest weather observations for WA | Other Formats
Station Details ID: 009789 Name: ESPERANCE Lat: -33.83 Lon: 121.89 Height: 25.0 m
Data from the previous 72 hours. | See also: Recent months at Esperance
Date/Time
WST
Temp
°C
App
Temp
°C
Dew
Point
°C
Rel
Hum
%
Delta-T
°C
Wind Press
QNH
hPa
Press
MSL
hPa
Rain since
9am
mm
Dir  Spd
km/h
Gust
km/h
Spd
kts
Gust
kts
10/01:30pm 20.3 15.4 11.2 56 5.0 SSE 28 39 15 21 1022.2 1022.1 0.0
10/01:00pm 19.0 13.5 10.6 58 4.5 SSE 30 39 16 21 1022.4 1022.3 0.0
10/12:30pm 18.7 13.5 10.3 58 4.5 SSE 28 37 15 20 1022.4 1022.3 0.0
10/12:00pm 18.8 13.0 10.9 60 4.3 SSE 32 41 17 22 1022.5 1022.4 0.0
10/11:30am 19.1 13.6 10.6 58 4.6 SSE 30 39 16 21 1022.8 1022.7 0.0
10/11:00am 19.0 13.5 10.6 58 4.5 SSE 30 37 16 20 1022.8 1022.7 0.0
10/10:30am 18.9 14.5 10.5 58 4.5 SSE 24 33 13 18 1023.1 1023.0 0.0
10/10:00am 19.0 15.0 10.6 58 4.5 SSE 22 30 12 16 1023.3 1023.2 0.0
10/09:30am 19.2 15.6 10.5 57 4.7 SSE 20 24 11 13 1023.4 1023.3 0.0
10/09:00am 18.4 14.8 10.0 58 4.4 SSE 19 28 10 15 1023.5 1023.4 -
10/08:30am 19.3 17.6 10.0 55 5.0 E 9 17 5 9 1023.6 1023.5 -
10/08:00am 17.7 15.2 9.8 60 4.2 NE 13 20 7 11 1023.9 1023.8 -
10/07:30am 17.1 15.0 9.8 62 3.8 ENE 11 19 6 10 1023.9 1023.8 -
10/07:00am 16.1 14.4 10.0 67 3.2 E 9 13 5 7 1023.9 1023.8 -
10/06:30am 13.1 11.2 9.2 77 2.0 NNE 9 13 5 7 1023.8 1023.7 -
10/06:00am 11.3 9.7 8.7 84 1.3 NNE 7 9 4 5 1023.8 1023.7 -
10/05:30am 9.9 8.2 8.2 89 0.8 NNE 7 9 4 5 1023.5 1023.4 -
10/05:00am 9.6 8.0 8.0 90 0.8 NE 6 7 3 4 1023.5 1023.4 -
10/04:30am 9.6 7.8 7.9 89 0.8 NE 7 9 4 5 1023.1 1023.0 -
10/04:00am 9.7 7.8 7.6 87 1.0 ENE 7 9 4 5 1023.0 1022.9 -
10/03:30am 10.0 8.2 7.8 86 1.1 E 7 9 4 5 1022.9 1022.8 -
10/03:00am 10.4 8.6 7.8 84 1.2 E 7 9 4 5 1022.9 1022.8 0.0
10/02:30am 10.9 8.9 8.5 85 1.2 ENE 9 11 5 6 1023.0 1022.9 -
10/02:00am 10.6 8.8 8.0 84 1.3 E 7 11 4 6 1023.2 1023.1 -
10/01:30am 10.9 8.4 8.1 83 1.4 ENE 11 13 6 7 1023.0 1022.9 -
10/01:00am 11.3 8.9 8.5 83 1.4 NE 11 15 6 8 1023.4 1023.3 -
10/12:30am 11.8 9.1 8.8 82 1.5 NE 13 17 7 9 1023.8 1023.7 -
10/12:00am 12.1 9.8 8.9 81 1.6 NE 11 15 6 8 1024.0 1023.9 -
 
Date/Time
WST
Temp
°C
App
Temp
°C
Dew
Point
°C
Rel
Hum
%
Delta-T
°C
Wind Press
QNH
hPa
Press
MSL
hPa
Rain since
9am
mm
Dir  Spd
km/h
Gust
km/h
Spd
kts
Gust
kts
09/11:30pm 12.5 10.1 8.8 78 1.9 ENE 11 15 6 8 1024.1 1024.0 -
09/11:00pm 13.0 11.1 9.1 77 2.0 E 9 11 5 6 1024.7 1024.6 -
09/10:30pm 13.5 11.4 9.6 77 2.0 E 11 17 6 9 1024.8 1024.7 -
09/10:00pm 13.5 11.6 9.2 75 2.2 E 9 13 5 7 1024.7 1024.6 -
09/09:30pm 13.8 11.5 9.0 73 2.4 E 11 15 6 8 1024.6 1024.5 -
09/09:00pm 15.3 12.1 10.1 71 2.7 ESE 17 24 9 13 1024.4 1024.3 -
09/08:30pm 15.5 11.7 9.8 69 3.0 ESE 20 28 11 15 1024.2 1024.1 -
09/08:00pm 15.7 11.9 9.8 68 3.1 ESE 20 30 11 16 1023.9 1023.8 -
09/07:30pm 15.8 12.0 9.7 67 3.2 SE 20 32 11 17 1023.7 1023.6 -
09/07:00pm 16.1 11.4 9.3 64 3.5 SE 24 30 13 16 1023.5 1023.4 -
09/06:30pm 16.7 12.3 9.1 61 3.9 SE 22 32 12 17 1023.2 1023.1 -
09/06:00pm 17.4 12.6 8.8 57 4.4 SE 24 33 13 18 1022.7 1022.6 -
09/05:30pm 17.6 12.6 9.5 59 4.2 SE 26 32 14 17 1022.4 1022.3 -
09/05:00pm 18.0 13.0 9.6 58 4.4 SSE 26 33 14 18 1022.1 1022.0 -
09/02:30pm 18.9 14.2 9.1 53 5.1 SSE 24 35 13 19 1022.5 1022.4 0.0
09/02:00pm 18.3 12.6 8.3 52 5.1 SSE 28 35 15 19 1022.8 1022.7 0.0
09/01:30pm 18.7 13.8 8.4 51 5.3 SSE 24 33 13 18 1023.2 1023.1 0.0
09/01:00pm 18.7 13.7 8.1 50 5.4 SSE 24 32 13 17 1023.6 1023.5 0.0
09/12:30pm 19.7 15.1 9.6 52 5.4 S 24 35 13 19 1023.8 1023.7 0.0
09/12:00pm 19.7 15.7 9.0 50 5.6 SSE 20 30 11 16 1024.1 1024.0 0.0
09/11:30am 18.9 14.4 8.6 51 5.4 SSE 22 30 12 16 1024.1 1024.0 0.0
09/11:00am 18.8 14.6 8.2 50 5.4 SSE 20 28 11 15 1024.3 1024.2 0.0
09/10:30am 18.4 14.3 7.8 50 5.4 SSE 19 28 10 15 1024.4 1024.3 0.0
09/10:00am 17.9 13.7 7.6 51 5.2 S 19 28 10 15 1024.5 1024.4 0.0
09/09:30am 18.9 15.3 8.3 50 5.5 SSE 17 24 9 13 1024.4 1024.3 0.0
09/09:00am 17.9 14.1 7.6 51 5.2 SE 17 24 9 13 1024.5 1024.4 0.0
09/08:30am 17.2 14.1 7.3 52 5.0 SSE 13 22 7 12 1024.4 1024.3 0.0
09/08:00am 17.8 14.9 8.1 53 4.9 SE 13 20 7 11 1024.5 1024.4 0.0
09/07:30am 16.7 13.7 7.9 56 4.4 SE 13 19 7 10 1024.4 1024.3 0.0
09/07:00am 16.4 13.4 7.6 56 4.4 ESE 13 20 7 11 1024.3 1024.2 0.0
09/06:30am 17.3 15.9 9.0 58 4.3 ENE 6 7 3 4 1024.1 1024.0 0.0
09/06:00am 15.3 13.5 7.8 61 3.7 ESE 7 11 4 6 1023.5 1023.4 0.0
09/05:30am 14.9 12.6 7.5 61 3.7 SE 9 15 5 8 1023.0 1022.9 0.0
09/05:00am 14.8 12.0 7.1 60 3.8 SE 11 15 6 8 1022.9 1022.8 0.0
09/04:30am 14.8 12.4 7.1 60 3.8 SSE 9 13 5 7 1022.6 1022.5 0.0
09/04:00am 15.2 12.1 7.3 59 3.9 SSE 13 19 7 10 1022.3 1022.2 0.0
09/03:30am 15.5 12.9 7.8 60 3.9 SSE 11 17 6 9 1022.2 1022.1 0.0
09/03:00am 15.4 11.6 7.4 59 3.9 S 17 24 9 13 1022.2 1022.1 0.0
09/02:30am 15.5 11.8 7.8 60 3.9 SSE 17 22 9 12 1022.1 1022.0 0.0
09/02:00am 15.5 12.4 7.3 58 4.0 SSE 13 22 7 12 1021.9 1021.8 0.0
09/01:30am 15.6 11.9 8.1 61 3.8 SSE 17 24 9 13 1022.0 1021.9 0.0
09/01:00am 15.3 12.8 8.3 63 3.5 S 11 15 6 8 1022.0 1021.9 0.0
09/12:30am 14.6 12.0 7.6 63 3.5 SSE 11 17 6 9 1021.9 1021.8 0.0
09/12:00am 15.1 12.2 8.1 63 3.5 S 13 19 7 10 1021.7 1021.6 0.0
 
Date/Time
WST
Temp
°C
App
Temp
°C
Dew
Point
°C
Rel
Hum
%
Delta-T
°C
Wind Press
QNH
hPa
Press
MSL
hPa
Rain since
9am
mm
Dir  Spd
km/h
Gust
km/h
Spd
kts
Gust
kts
08/11:30pm 15.2 11.8 7.7 61 3.7 S 15 20 8 11 1021.9 1021.8 0.0
08/11:00pm 15.1 12.9 7.9 62 3.6 S 9 13 5 7 1021.9 1021.8 0.0
08/10:30pm 15.1 11.7 7.6 61 3.7 S 15 20 8 11 1022.1 1022.0 0.0
08/10:00pm 15.4 12.0 7.7 60 3.8 S 15 20 8 11 1022.4 1022.3 0.0
08/09:30pm 15.4 11.9 7.4 59 4.0 S 15 20 8 11 1022.7 1022.6 0.0
08/09:00pm 15.7 12.3 7.7 59 4.0 S 15 22 8 12 1022.7 1022.6 0.0
08/08:30pm 16.1 12.1 8.1 59 4.0 S 19 24 10 13 1022.4 1022.3 0.0
08/08:00pm 16.1 12.0 7.8 58 4.2 S 19 28 10 15 1022.1 1022.0 0.0
08/07:30pm 16.4 12.4 8.4 59 4.1 S 19 26 10 14 1021.9 1021.8 0.0
08/07:00pm 16.8 13.4 9.0 60 4.0 S 17 22 9 12 1021.7 1021.6 0.0
08/06:30pm 16.8 13.1 9.5 62 3.8 S 19 28 10 15 1021.1 1021.0 0.0
08/06:00pm 17.0 13.4 9.9 63 3.7 SSW 19 30 10 16 1020.7 1020.6 0.0
08/05:30pm 17.4 13.2 9.8 61 4.0 S 22 30 12 16 1020.2 1020.1 0.0
08/05:00pm 17.8 14.1 10.2 61 4.0 S 20 30 11 16 1019.8 1019.7 0.0
08/04:30pm 18.0 14.3 10.1 60 4.2 SSW 20 35 11 19 1019.5 1019.4 0.0
08/04:00pm 18.0 14.4 10.6 62 4.0 SSW 20 33 11 18 1019.2 1019.1 0.0
08/03:30pm 19.2 15.0 11.0 59 4.5 SSW 24 35 13 19 1018.9 1018.8 0.0
08/03:00pm 19.2 14.5 10.7 58 4.6 SSW 26 41 14 22 1018.9 1018.8 0.0
08/02:30pm 19.2 15.6 12.0 63 4.0 SSW 22 37 12 20 1018.7 1018.6 0.0
08/02:00pm 19.4 16.0 11.4 60 4.4 SSW 20 32 11 17 1018.4 1018.3 0.0
08/01:30pm 20.1 16.5 10.5 54 5.2 SW 20 33 11 18 1018.2 1018.1 0.0
08/01:00pm 19.8 15.3 10.2 54 5.2 SSW 24 35 13 19 1017.8 1017.7 0.0
08/12:30pm 19.3 14.4 9.8 54 5.1 SSW 26 43 14 23 1017.8 1017.7 0.0
08/12:00pm 21.2 17.4 9.8 48 6.1 SSW 20 35 11 19 1017.7 1017.6 0.0
08/11:30am 21.5 17.5 10.3 49 6.1 SSW 22 37 12 20 1017.6 1017.5 0.0
08/11:00am 19.5 14.9 9.7 53 5.2 SW 24 35 13 19 1017.8 1017.7 0.0
08/10:30am 20.2 15.5 9.2 49 5.8 SSW 24 39 13 21 1017.8 1017.7 0.0
08/10:00am 19.4 16.1 10.9 58 4.6 SW 19 32 10 17 1017.5 1017.4 0.0
08/09:30am 18.6 14.3 10.7 60 4.3 SSW 24 35 13 19 1017.5 1017.4 0.0
08/09:00am 18.9 15.0 10.7 59 4.4 SSW 22 41 12 22 1017.2 1017.1 0.0
08/08:30am 19.0 15.5 10.8 59 4.4 SW 20 30 11 16 1016.8 1016.7 0.0
08/08:00am 18.4 14.7 10.0 58 4.5 SW 20 37 11 20 1016.6 1016.5 0.0
08/07:30am 18.4 14.7 10.0 58 4.5 SW 20 32 11 17 1016.3 1016.2 0.0
08/07:00am 18.2 14.6 10.6 61 4.1 SSW 20 32 11 17 1015.8 1015.7 0.0
08/06:30am 17.9 14.8 11.5 66 3.5 SW 19 32 10 17 1015.3 1015.3 0.0
08/06:00am 18.0 15.4 12.0 68 3.3 SW 17 26 9 14 1014.8 1014.8 0.0
08/05:30am 17.6 14.7 12.3 71 2.9 SSW 19 28 10 15 1014.3 1014.3 0.0
08/05:00am 17.5 15.8 12.6 73 2.7 SW 13 20 7 11 1013.7 1013.7 0.0
08/04:30am 17.4 15.3 12.5 73 2.7 SW 15 22 8 12 1013.4 1013.4 0.0
08/04:00am 17.3 14.8 12.4 73 2.7 SW 17 24 9 13 1013.1 1013.1 0.0
08/03:30am 17.5 15.2 13.0 75 2.5 SW 17 26 9 14 1012.8 1012.8 0.0
08/03:00am 17.9 16.3 13.8 77 2.3 SW 15 24 8 13 1012.4 1012.4 0.0
08/02:30am 17.6 16.3 13.7 78 2.2 SW 13 22 7 12 1012.2 1012.2 0.0
08/02:00am 17.5 16.6 13.8 79 2.1 WSW 11 17 6 9 1012.2 1012.2 0.0
08/01:30am 17.1 16.5 13.4 79 2.1 WSW 9 11 5 6 1012.0 1012.0 0.0
08/01:00am 17.3 16.9 13.0 76 2.4 WSW 7 11 4 6 1012.0 1012.0 0.0
08/12:30am 17.5 16.7 12.8 74 2.6 SW 9 17 5 9 1012.0 1012.0 0.0
08/12:00am 17.8 16.9 12.7 72 2.8 SW 9 17 5 9 1011.9 1011.9 0.0
 
Date/Time
WST
Temp
°C
App
Temp
°C
Dew
Point
°C
Rel
Hum
%
Delta-T
°C
Wind Press
QNH
hPa
Press
MSL
hPa
Rain since
9am
mm
Dir  Spd
km/h
Gust
km/h
Spd
kts
Gust
kts
07/11:30pm 18.1 16.4 12.3 69 3.2 SW 13 19 7 10 1011.9 1011.9 0.0
07/11:00pm 18.3 16.6 12.3 68 3.3 SW 13 19 7 10 1011.8 1011.8 0.0
07/10:30pm 18.1 17.3 12.8 71 3.0 SW 9 13 5 7 1011.6 1011.6 0.0
07/10:00pm 18.4 17.7 13.3 72 2.9 SW 9 19 5 10 1011.5 1011.5 0.0
07/09:30pm 18.7 18.0 13.3 71 3.1 SW 9 13 5 7 1011.3 1011.3 0.0
07/09:00pm 19.0 17.6 13.4 70 3.2 SSW 13 20 7 11 1011.0 1011.0 0.0
07/08:30pm 19.1 17.4 13.7 71 3.1 SSW 15 20 8 11 1010.7 1010.7 0.0
07/08:00pm 19.3 17.3 13.9 71 3.1 S 17 28 9 15 1010.2 1010.2 0.0
07/07:30pm 19.4 16.9 14.2 72 3.0 SSW 20 33 11 18 1009.9 1009.9 0.0
07/07:00pm 19.5 16.7 14.3 72 3.0 SSW 22 37 12 20 1009.1 1009.1 0.0
07/06:30pm 19.7 15.0 14.3 71 3.1 SSW 32 52 17 28 1008.5 1008.5 0.0
07/06:00pm 20.2 14.4 15.0 72 3.1 SSW 39 63 21 34 1006.7 1006.6 0.0
07/05:59pm 20.2 14.3 14.8 71 3.2 SSW 39 63 21 34 1006.5 1006.4 0.0
07/05:30pm 21.5 15.5 14.4 64 4.2 SSW 39 59 21 32 1005.1 1005.0 0.0
07/05:14pm 23.4 18.3 13.8 54 5.6 SSW 33 63 18 34 1004.3 1004.2 0.0
07/05:10pm 27.5 25.2 13.1 41 8.5 SSW 17 50 9 27 1003.9 1003.8 0.0
07/05:09pm 28.5 27.2 13.6 40 8.9 SSW 13 46 7 25 1003.7 1003.6 0.0
07/05:00pm 27.4 27.8 14.8 46 7.6 S 6 7 3 4 1002.1 1002.0 0.0
07/04:30pm 27.5 27.0 13.8 43 8.1 E 9 11 5 6 1001.8 1001.7 0.0
07/04:00pm 27.2 26.8 14.2 44 7.8 SE 9 13 5 7 1002.0 1001.9 0.0
07/03:30pm 28.6 27.7 14.8 43 8.4 SE 13 19 7 10 1002.1 1002.0 0.0
07/03:00pm 27.3 25.7 14.0 44 8.0 SE 15 19 8 10 1002.3 1002.2 0.0
07/02:30pm 26.0 24.7 14.8 50 6.7 SE 15 19 8 10 1002.7 1002.6 0.0
07/02:00pm 30.7 29.6 13.0 33 10.6 S 11 15 6 8 1003.1 1003.0 0.0

Other formats

Comma delimited format used in spreadsheet applications
http://www.bom.gov.au/fwo/IDW60801/IDW60801.94638.axf

JavaScript Object Notation format (JSON) in row-major order
http://www.bom.gov.au/fwo/IDW60801/IDW60801.94638.json

Data quality

Most of these data are generated automatically and are frequently updated. Quality checks on data are not normally performed. It is possible for incorrect values to appear. Refer to information at About Latest Weather Observations and please check the disclaimer before using these data.